createdAt,value
2022-11-07T00:00:32.992Z,5.43
2022-11-07T00:03:01.865Z,6.10
2022-11-07T00:05:30.787Z,5.30
2022-11-07T00:08:01.010Z,5.83
2022-11-07T00:10:29.899Z,7.07
2022-11-07T00:12:58.800Z,5.67
2022-11-07T00:15:27.584Z,5.40
2022-11-07T00:17:56.330Z,6.97
2022-11-07T00:20:25.194Z,6.97
2022-11-07T00:22:53.986Z,7.73
2022-11-07T00:25:42.573Z,5.67
2022-11-07T00:28:11.436Z,5.83
2022-11-07T00:30:59.783Z,5.57
2022-11-07T00:33:28.809Z,6.53
2022-11-07T00:36:20.190Z,5.27
2022-11-07T00:38:49.639Z,5.37
2022-11-07T00:41:20.878Z,4.73
2022-11-07T00:43:49.759Z,5.47
2022-11-07T00:46:19.697Z,4.23
2022-11-07T00:48:48.943Z,4.30
2022-11-07T00:51:19.816Z,4.07
2022-11-07T00:53:48.937Z,4.00
2022-11-07T00:56:21.593Z,4.60
2022-11-07T00:58:50.507Z,4.00
2022-11-07T01:01:21.381Z,4.63
2022-11-07T01:04:08.657Z,3.53
2022-11-07T01:06:39.837Z,4.33
2022-11-07T01:09:10.438Z,4.53
2022-11-07T01:11:41.777Z,4.80
2022-11-07T01:14:11.918Z,3.90
2022-11-07T01:16:42.078Z,3.87
2022-11-07T01:19:11.425Z,3.83
2022-11-07T01:21:41.358Z,3.80
2022-11-07T01:24:11.741Z,4.10
2022-11-07T01:26:43.529Z,5.83
2022-11-07T01:29:12.465Z,3.73
2022-11-07T01:31:41.347Z,3.90
2022-11-07T01:34:29.150Z,4.63
2022-11-07T01:36:57.981Z,4.47
2022-11-07T01:39:27.061Z,4.20
2022-11-07T01:41:57.350Z,3.93
2022-11-07T01:45:02.985Z,4.00
2022-11-07T01:47:34.814Z,4.07
2022-11-07T01:50:04.776Z,3.97
2022-11-07T01:52:36.280Z,3.63
2022-11-07T01:55:10.053Z,4.40
2022-11-07T01:57:44.146Z,3.97
2022-11-07T02:00:17.578Z,3.83
2022-11-07T02:02:48.725Z,4.23
2022-11-07T02:05:22.207Z,4.50
2022-11-07T02:07:51.310Z,4.30
2022-11-07T02:10:21.115Z,4.57
2022-11-07T02:12:51.603Z,4.10
2022-11-07T02:15:20.719Z,3.60
2022-11-07T02:17:50.296Z,3.57
2022-11-07T02:20:19.408Z,4.20
2022-11-07T02:22:54.375Z,4.03
2022-11-07T02:25:25.414Z,4.27
2022-11-07T02:27:58.448Z,4.50
2022-11-07T02:30:47.802Z,3.87
2022-11-07T02:33:20.885Z,4.00
2022-11-07T02:36:09.300Z,5.83
2022-11-07T02:38:58.912Z,5.17
2022-11-07T02:41:33.311Z,5.83
2022-11-07T02:44:07.568Z,5.47
2022-11-07T02:46:37.251Z,5.73
2022-11-07T02:49:24.471Z,5.27
2022-11-07T02:51:53.267Z,4.90
2022-11-07T02:54:22.079Z,5.63
2022-11-07T02:56:52.459Z,5.17
2022-11-07T02:59:26.608Z,5.07
2022-11-07T03:01:56.046Z,5.33
2022-11-07T03:04:24.950Z,4.50
2022-11-07T03:06:53.991Z,4.40
2022-11-07T03:09:22.907Z,5.03
2022-11-07T03:11:53.331Z,4.60
2022-11-07T03:14:22.539Z,4.90
2022-11-07T03:16:51.445Z,6.70
2022-11-07T03:19:20.347Z,4.83
2022-11-07T03:21:51.441Z,4.33
2022-11-07T03:24:20.405Z,6.13
2022-11-07T03:26:49.204Z,4.40
2022-11-07T03:29:19.661Z,5.60
2022-11-07T03:31:48.450Z,5.63
2022-11-07T03:34:17.278Z,4.37
2022-11-07T03:36:46.096Z,4.70
2022-11-07T03:39:14.954Z,6.30
2022-11-07T03:41:43.791Z,4.63
2022-11-07T03:44:12.651Z,4.63
2022-11-07T03:46:42.923Z,4.53
2022-11-07T03:49:11.939Z,4.47
2022-11-07T03:51:40.765Z,6.70
2022-11-07T03:54:09.593Z,4.63
2022-11-07T03:56:38.401Z,4.50
2022-11-07T03:59:07.310Z,4.53
2022-11-07T04:01:36.287Z,6.13
2022-11-07T04:04:06.883Z,8.27
2022-11-07T04:06:35.889Z,8.53
2022-11-07T04:09:05.242Z,8.20
2022-11-07T04:11:51.380Z,6.80
2022-11-07T04:14:37.251Z,5.97
2022-11-07T04:17:22.648Z,5.93
2022-11-07T04:19:55.030Z,7.30
2022-11-07T04:22:25.286Z,7.93
2022-11-07T04:24:54.451Z,8.67
2022-11-07T04:27:40.413Z,9.30
2022-11-07T04:30:23.824Z,12.50
2022-11-07T04:32:54.170Z,11.47
2022-11-07T04:35:27.303Z,7.70
2022-11-07T04:37:56.171Z,7.30
2022-11-07T04:40:25.048Z,5.17
2022-11-07T04:42:54.011Z,4.67
2022-11-07T04:45:22.811Z,4.67
2022-11-07T04:47:51.662Z,5.97
2022-11-07T04:50:21.940Z,5.53
2022-11-07T04:52:52.291Z,7.00
2022-11-07T04:55:23.831Z,4.70
2022-11-07T04:57:53.098Z,4.23
2022-11-07T05:00:22.311Z,4.60
2022-11-07T05:02:52.059Z,5.10
2022-11-07T05:05:21.390Z,4.40
2022-11-07T05:07:51.928Z,4.20
2022-11-07T05:10:22.499Z,5.30
2022-11-07T05:12:51.687Z,4.30
2022-11-07T05:15:20.462Z,4.23
2022-11-07T05:17:49.322Z,4.17
2022-11-07T05:20:31.011Z,4.37
2022-11-07T05:23:15.626Z,3.80
2022-11-07T05:25:46.207Z,4.30
2022-11-07T05:28:16.896Z,6.70
2022-11-07T05:30:47.092Z,3.80
2022-11-07T05:33:18.152Z,4.60
2022-11-07T05:35:47.775Z,4.60
2022-11-07T05:38:18.038Z,4.10
2022-11-07T05:40:46.857Z,4.20
2022-11-07T05:43:17.025Z,3.30
2022-11-07T05:45:46.157Z,3.77
2022-11-07T05:48:15.568Z,4.73
2022-11-07T05:50:44.372Z,4.00
2022-11-07T05:53:13.489Z,4.07
2022-11-07T05:55:44.142Z,3.67
2022-11-07T05:58:14.161Z,3.87
2022-11-07T06:00:43.092Z,3.30
2022-11-07T06:03:12.661Z,4.37
2022-11-07T06:05:42.566Z,5.00
2022-11-07T06:08:13.455Z,4.40
2022-11-07T06:10:45.002Z,4.17
2022-11-07T06:13:15.993Z,4.90
2022-11-07T06:15:46.414Z,4.37
2022-11-07T06:18:17.422Z,8.13
2022-11-07T06:20:46.422Z,4.63
2022-11-07T06:23:15.963Z,4.57
2022-11-07T06:25:46.737Z,5.07
2022-11-07T06:28:16.588Z,4.40
2022-11-07T06:30:45.862Z,5.00
2022-11-07T06:33:18.158Z,5.20
2022-11-07T06:35:47.696Z,5.23
2022-11-07T06:38:17.093Z,5.63
2022-11-07T06:40:47.416Z,5.67
2022-11-07T06:43:19.158Z,6.03
2022-11-07T06:45:49.050Z,4.77
2022-11-07T06:48:17.901Z,7.30
2022-11-07T06:50:46.778Z,6.33
2022-11-07T06:53:16.143Z,7.43
2022-11-07T06:55:46.811Z,6.73
2022-11-07T06:58:15.577Z,7.70
2022-11-07T07:00:44.619Z,6.93
2022-11-07T07:03:14.339Z,5.03
2022-11-07T07:05:43.528Z,5.97
2022-11-07T07:08:14.266Z,5.10
2022-11-07T07:10:47.177Z,5.00
2022-11-07T07:13:16.510Z,7.57
2022-11-07T07:15:54.331Z,5.37
2022-11-07T07:18:24.101Z,4.10
2022-11-07T07:20:53.811Z,5.37
2022-11-07T07:23:22.885Z,5.43
2022-11-07T07:25:53.341Z,7.77
2022-11-07T07:28:22.171Z,6.90
2022-11-07T07:30:52.219Z,6.93
2022-11-07T07:33:21.339Z,7.20
2022-11-07T07:35:50.216Z,6.03
2022-11-07T07:38:19.025Z,9.03
2022-11-07T07:40:47.890Z,4.90
2022-11-07T07:43:18.352Z,5.90
2022-11-07T07:45:48.128Z,6.47
2022-11-07T07:48:16.991Z,5.60
2022-11-07T07:50:45.871Z,6.07
2022-11-07T07:53:14.923Z,7.10
2022-11-07T07:55:44.158Z,6.63
2022-11-07T07:58:13.990Z,5.30
2022-11-07T08:00:44.420Z,5.87
2022-11-07T08:03:15.120Z,4.23
2022-11-07T08:05:44.257Z,6.37
2022-11-07T08:08:13.088Z,3.57
2022-11-07T08:10:43.125Z,3.93
2022-11-07T08:13:12.301Z,3.00
2022-11-07T08:15:43.367Z,11.53
2022-11-07T08:18:12.254Z,29.57
2022-11-07T08:20:41.095Z,30.83
2022-11-07T08:23:16.454Z,11.43
2022-11-07T08:25:52.253Z,4.83
2022-11-07T08:28:22.149Z,3.90
2022-11-07T08:31:00.140Z,6.40
2022-11-07T08:33:29.513Z,2.70
2022-11-07T08:36:00.800Z,3.03
2022-11-07T08:38:30.309Z,4.07
2022-11-07T08:41:00.001Z,3.00
2022-11-07T08:43:28.924Z,4.07
2022-11-07T08:45:59.283Z,3.33
2022-11-07T08:48:28.286Z,3.03
2022-11-07T08:50:59.167Z,3.53
2022-11-07T08:53:28.737Z,3.97
2022-11-07T08:56:03.658Z,2.73
2022-11-07T08:58:32.922Z,2.80
2022-11-07T09:01:06.183Z,3.90
2022-11-07T09:03:48.844Z,2.90
2022-11-07T09:06:22.141Z,3.33
2022-11-07T09:08:51.006Z,2.97
2022-11-07T09:11:20.109Z,3.53
2022-11-07T09:13:49.460Z,3.17
2022-11-07T09:16:20.223Z,3.07
2022-11-07T09:18:50.646Z,3.03
2022-11-07T09:21:22.683Z,3.20
2022-11-07T09:23:52.197Z,3.40
2022-11-07T09:26:21.185Z,2.90
2022-11-07T09:28:52.291Z,3.30
2022-11-07T09:31:23.698Z,4.10
2022-11-07T09:33:52.538Z,3.90
2022-11-07T09:36:22.334Z,3.13
2022-11-07T09:38:51.195Z,3.13
2022-11-07T09:41:31.120Z,3.40
2022-11-07T09:44:18.640Z,3.50
2022-11-07T09:46:59.009Z,3.83
2022-11-07T09:49:32.195Z,3.87
2022-11-07T09:52:05.767Z,3.97
2022-11-07T09:54:39.531Z,3.77
2022-11-07T09:57:14.299Z,4.10
2022-11-07T09:59:47.191Z,2.97
2022-11-07T10:02:20.718Z,3.57
2022-11-07T10:04:55.577Z,3.97
2022-11-07T10:07:33.311Z,3.40
2022-11-07T10:10:08.682Z,4.40
2022-11-07T10:12:52.222Z,2.90
2022-11-07T10:15:26.972Z,3.13
2022-11-07T10:18:04.528Z,4.10
2022-11-07T10:21:05.397Z,3.25
2022-11-07T10:23:55.108Z,3.50
2022-11-07T10:26:27.060Z,5.47
2022-11-07T10:29:02.422Z,4.60
2022-11-07T10:31:35.851Z,4.50
2022-11-07T10:34:13.506Z,6.40
2022-11-07T10:36:42.490Z,5.80
2022-11-07T10:39:16.664Z,6.47
2022-11-07T10:41:50.051Z,4.22
2022-11-07T10:44:25.368Z,6.28
2022-11-07T10:46:54.996Z,5.22
2022-11-07T10:49:27.584Z,4.78
2022-11-07T10:52:06.853Z,4.82
2022-11-07T10:54:35.781Z,5.53
2022-11-07T10:57:07.673Z,4.90
2022-11-07T10:59:39.451Z,4.97
2022-11-07T11:02:22.095Z,4.28
2022-11-07T11:04:54.342Z,5.57
2022-11-07T11:07:28.637Z,5.40
2022-11-07T11:09:59.332Z,5.45
2022-11-07T11:12:34.121Z,6.93
2022-11-07T11:15:12.077Z,6.65
2022-11-07T11:17:41.167Z,7.32
2022-11-07T11:20:30.073Z,6.13
2022-11-07T11:22:59.873Z,6.03
2022-11-07T11:25:28.754Z,5.82
2022-11-07T11:28:03.507Z,5.32
2022-11-07T11:30:34.858Z,5.50
2022-11-07T11:33:11.708Z,5.95
2022-11-07T11:35:46.348Z,5.50
2022-11-07T11:38:18.802Z,7.65
2022-11-07T11:41:01.573Z,7.45
2022-11-07T11:43:42.596Z,5.60
2022-11-07T11:46:21.468Z,6.30
2022-11-07T11:48:53.447Z,6.72
2022-11-07T11:51:33.886Z,6.88
2022-11-07T11:54:03.855Z,6.45
2022-11-07T11:56:45.564Z,6.28
2022-11-07T11:59:55.008Z,6.30
2022-11-07T12:02:47.589Z,6.50
2022-11-07T12:05:29.143Z,5.88
2022-11-07T12:08:15.217Z,6.32
2022-11-07T12:10:50.240Z,7.10
2022-11-07T12:13:27.981Z,7.80
2022-11-07T12:16:09.015Z,6.50
2022-11-07T12:18:45.250Z,8.43
2022-11-07T12:21:24.522Z,5.85
2022-11-07T12:24:18.934Z,6.15
2022-11-07T12:26:57.894Z,5.90
2022-11-07T12:29:34.653Z,5.50
2022-11-07T12:32:18.507Z,5.10
2022-11-07T12:35:02.337Z,7.60
2022-11-07T12:37:53.704Z,8.75
2022-11-07T12:40:31.650Z,6.00
2022-11-07T12:43:15.035Z,6.93
2022-11-07T12:45:52.349Z,6.13
2022-11-07T12:48:50.567Z,7.35
2022-11-07T12:51:29.449Z,8.68
2022-11-07T12:54:16.335Z,8.02
2022-11-07T12:56:48.807Z,7.40
2022-11-07T12:59:24.026Z,6.53
2022-11-07T13:02:00.002Z,6.25
2022-11-07T13:04:37.762Z,6.93
2022-11-07T13:07:18.117Z,6.97
2022-11-07T13:09:55.386Z,7.50
2022-11-07T13:12:32.626Z,6.50
2022-11-07T13:15:01.785Z,5.90
2022-11-07T13:17:41.264Z,6.43
2022-11-07T13:20:29.218Z,6.63
2022-11-07T13:22:59.665Z,8.80
2022-11-07T13:25:31.434Z,6.55
2022-11-07T13:28:08.936Z,7.80
2022-11-07T13:30:40.227Z,6.45
2022-11-07T13:33:23.947Z,6.03
2022-11-07T13:35:56.175Z,6.13
2022-11-07T13:38:27.187Z,96.53
2022-11-07T13:41:01.953Z,117.43
2022-11-07T13:43:40.494Z,12.30
2022-11-07T13:46:12.013Z,10.38
2022-11-07T13:48:49.284Z,7.40
2022-11-07T13:51:22.070Z,7.72
2022-11-07T13:53:57.460Z,5.82
2022-11-07T13:56:34.080Z,8.23
2022-11-07T13:59:07.411Z,6.25
2022-11-07T14:01:44.587Z,8.60
2022-11-07T14:04:15.548Z,5.88
2022-11-07T14:06:44.887Z,9.38
2022-11-07T14:09:17.125Z,5.80
2022-11-07T14:11:47.327Z,8.20
2022-11-07T14:14:18.577Z,6.82
2022-11-07T14:16:47.838Z,8.38
2022-11-07T14:19:19.828Z,7.20
2022-11-07T14:21:48.985Z,6.50
2022-11-07T14:24:27.057Z,5.97
2022-11-07T14:27:00.978Z,7.03
2022-11-07T14:29:31.410Z,8.55
2022-11-07T14:32:01.666Z,7.55
2022-11-07T14:34:30.560Z,7.63
2022-11-07T14:37:01.270Z,7.57
2022-11-07T14:39:32.584Z,10.15
2022-11-07T14:42:03.634Z,9.18
2022-11-07T14:44:55.489Z,9.60
2022-11-07T14:47:27.049Z,9.32
2022-11-07T14:49:57.355Z,8.07
2022-11-07T14:52:30.394Z,10.57
2022-11-07T14:55:04.499Z,8.82
2022-11-07T14:57:36.071Z,8.77
2022-11-07T15:00:14.131Z,7.75
2022-11-07T15:02:43.747Z,8.27
2022-11-07T15:05:23.946Z,10.18
2022-11-07T15:07:53.023Z,8.45
2022-11-07T15:10:32.211Z,9.82
2022-11-07T15:13:04.258Z,9.30
2022-11-07T15:15:36.958Z,9.70
2022-11-07T15:18:07.951Z,12.40
2022-11-07T15:20:40.202Z,10.02
2022-11-07T15:23:30.182Z,9.52
2022-11-07T15:26:01.117Z,9.02
2022-11-07T15:28:32.726Z,9.02
2022-11-07T15:31:03.436Z,10.05
2022-11-07T15:33:34.117Z,10.57
2022-11-07T15:36:03.747Z,10.68
2022-11-07T15:38:32.709Z,9.52
2022-11-07T15:41:01.574Z,11.05
2022-11-07T15:43:30.402Z,9.98
2022-11-07T15:46:01.476Z,12.93
2022-11-07T15:48:41.005Z,11.57
2022-11-07T15:51:10.589Z,12.55
2022-11-07T15:53:39.813Z,11.70
2022-11-07T15:56:10.245Z,9.52
2022-11-07T15:58:39.304Z,13.05
2022-11-07T16:01:08.412Z,10.52
2022-11-07T16:03:38.748Z,12.45
2022-11-07T16:06:17.363Z,10.02
2022-11-07T16:08:46.153Z,12.15
2022-11-07T16:11:16.156Z,12.82
2022-11-07T16:13:45.909Z,12.93
2022-11-07T16:16:20.625Z,13.60
2022-11-07T16:18:53.844Z,14.50
2022-11-07T16:21:23.056Z,13.27
2022-11-07T16:23:52.749Z,13.40
2022-11-07T16:26:27.936Z,16.98
2022-11-07T16:28:56.756Z,14.23
2022-11-07T16:31:25.534Z,14.93
2022-11-07T16:33:55.907Z,19.57
2022-11-07T16:36:28.593Z,30.13
2022-11-07T16:38:57.646Z,26.93
2022-11-07T16:41:26.454Z,26.10
2022-11-07T16:43:55.349Z,20.20
2022-11-07T16:46:26.082Z,20.43
2022-11-07T16:49:03.426Z,19.20
2022-11-07T16:51:33.225Z,19.03
2022-11-07T16:54:03.092Z,12.30
2022-11-07T16:56:35.502Z,14.23
2022-11-07T16:59:06.835Z,12.63
2022-11-07T17:01:36.629Z,13.23
2022-11-07T17:04:07.130Z,14.37
2022-11-07T17:06:37.172Z,12.17
2022-11-07T17:09:12.260Z,13.37
2022-11-07T17:11:42.451Z,12.60
2022-11-07T17:14:11.495Z,14.70
2022-11-07T17:16:43.828Z,16.17
2022-11-07T17:19:15.069Z,19.20
2022-11-07T17:21:48.598Z,21.27
2022-11-07T17:24:17.770Z,14.07
2022-11-07T17:26:46.566Z,16.17
2022-11-07T17:29:15.773Z,22.33
2022-11-07T17:31:44.765Z,24.67
2022-11-07T17:34:15.039Z,27.67
2022-11-07T17:36:46.288Z,30.87
2022-11-07T17:39:17.984Z,38.33
2022-11-07T17:41:48.577Z,29.53
2022-11-07T17:44:18.599Z,30.73
2022-11-07T17:46:49.318Z,26.53
2022-11-07T17:49:22.172Z,25.37
2022-11-07T17:51:54.327Z,26.77
2022-11-07T17:54:28.290Z,22.30
2022-11-07T17:56:58.330Z,24.10
2022-11-07T17:59:27.169Z,32.83
2022-11-07T18:01:56.157Z,35.47
2022-11-07T18:04:26.506Z,36.23
2022-11-07T18:06:55.436Z,33.70
2022-11-07T18:09:24.255Z,29.47
2022-11-07T18:11:53.153Z,29.97
2022-11-07T18:14:22.048Z,28.80
2022-11-07T18:16:50.919Z,29.17
2022-11-07T18:19:21.240Z,25.53
2022-11-07T18:21:51.520Z,26.00
2022-11-07T18:24:20.371Z,22.33
2022-11-07T18:26:51.925Z,24.27
2022-11-07T18:29:21.129Z,24.33
2022-11-07T18:31:50.011Z,33.43
2022-11-07T18:34:19.851Z,22.47
2022-11-07T18:36:48.727Z,22.93
2022-11-07T18:39:21.776Z,25.43
2022-11-07T18:41:51.955Z,22.87
2022-11-07T18:44:21.280Z,20.23
2022-11-07T18:46:50.226Z,19.63
2022-11-07T18:49:19.695Z,17.47
2022-11-07T18:51:48.575Z,22.37
2022-11-07T18:54:18.944Z,17.80
2022-11-07T18:56:47.836Z,20.17
2022-11-07T18:59:16.715Z,16.77
2022-11-07T19:01:45.961Z,17.30
2022-11-07T19:04:15.063Z,18.93
2022-11-07T19:06:57.256Z,17.30
2022-11-07T19:09:30.613Z,20.77
2022-11-07T19:12:00.316Z,19.20
2022-11-07T19:14:29.866Z,17.80
2022-11-07T19:16:59.168Z,16.00
2022-11-07T19:19:28.085Z,15.43
2022-11-07T19:21:57.213Z,15.43
2022-11-07T19:24:27.641Z,20.53
2022-11-07T19:26:56.557Z,17.40
2022-11-07T19:29:26.112Z,16.43
2022-11-07T19:31:55.018Z,14.03
2022-11-07T19:34:25.699Z,12.50
2022-11-07T19:36:54.611Z,14.93
2022-11-07T19:39:23.427Z,14.30
2022-11-07T19:41:53.709Z,13.47
2022-11-07T19:44:22.730Z,13.83
2022-11-07T19:46:52.277Z,18.87
2022-11-07T19:49:21.166Z,15.63
2022-11-07T19:51:50.062Z,12.77
2022-11-07T19:54:19.313Z,12.97
2022-11-07T19:56:51.882Z,12.43
2022-11-07T19:59:25.728Z,15.40
2022-11-07T20:02:18.296Z,15.30
2022-11-07T20:04:43.661Z,17.70
2022-11-07T20:07:12.556Z,25.40
2022-11-07T20:09:41.663Z,19.67
2022-11-07T20:12:11.742Z,16.83
2022-11-07T20:14:42.534Z,15.90
2022-11-07T20:17:11.414Z,13.87
2022-11-07T20:19:41.410Z,11.63
2022-11-07T20:22:12.253Z,12.87
2022-11-07T20:24:41.390Z,15.13
2022-11-07T20:27:10.237Z,13.83
2022-11-07T20:29:39.198Z,13.63
2022-11-07T20:32:12.037Z,12.73
2022-11-07T20:34:40.975Z,12.13
2022-11-07T20:37:10.773Z,11.90
2022-11-07T20:39:42.618Z,11.77
2022-11-07T20:42:11.645Z,12.77
2022-11-07T20:44:42.258Z,13.30
2022-11-07T20:47:14.354Z,10.80
2022-11-07T20:49:44.716Z,9.60
2022-11-07T20:52:13.724Z,9.83
2022-11-07T20:54:42.813Z,9.73
2022-11-07T20:57:11.683Z,8.37
2022-11-07T20:59:42.345Z,9.00
2022-11-07T21:02:14.447Z,10.00
2022-11-07T21:05:03.118Z,8.90
2022-11-07T21:07:32.217Z,7.13
2022-11-07T21:10:01.273Z,7.37
2022-11-07T21:12:30.117Z,9.20
2022-11-07T21:14:58.941Z,8.90
2022-11-07T21:17:29.333Z,8.47
2022-11-07T21:19:58.450Z,9.00
2022-11-07T21:22:29.516Z,10.53
2022-11-07T21:24:58.802Z,10.97
2022-11-07T21:27:27.629Z,10.80
2022-11-07T21:29:56.520Z,11.87
2022-11-07T21:32:25.322Z,7.80
2022-11-07T21:34:55.664Z,7.13
2022-11-07T21:37:24.512Z,7.07
2022-11-07T21:39:53.498Z,6.50
2022-11-07T21:42:22.290Z,5.50
2022-11-07T21:44:51.214Z,5.97
2022-11-07T21:47:20.098Z,5.07
2022-11-07T21:49:50.181Z,6.30
2022-11-07T21:52:20.469Z,5.17
2022-11-07T21:55:05.651Z,5.30
2022-11-07T21:57:35.003Z,5.80
2022-11-07T22:00:05.284Z,5.17
2022-11-07T22:02:34.142Z,6.13
2022-11-07T22:05:03.104Z,7.07
2022-11-07T22:07:35.380Z,9.97
2022-11-07T22:10:05.675Z,8.10
2022-11-07T22:12:34.570Z,10.67
2022-11-07T22:15:03.403Z,10.47
2022-11-07T22:17:32.264Z,8.97
2022-11-07T22:20:01.138Z,9.17
2022-11-07T22:22:30.082Z,6.90
2022-11-07T22:25:00.340Z,5.93
2022-11-07T22:27:29.223Z,5.20
2022-11-07T22:29:58.007Z,4.83
2022-11-07T22:32:26.795Z,5.10
2022-11-07T22:34:55.726Z,4.43
2022-11-07T22:37:24.564Z,6.37
2022-11-07T22:39:53.399Z,4.90
2022-11-07T22:42:24.029Z,4.50
2022-11-07T22:44:53.194Z,4.90
2022-11-07T22:47:22.091Z,5.97
2022-11-07T22:49:51.000Z,5.83
2022-11-07T22:52:20.055Z,5.97
2022-11-07T22:54:49.111Z,5.33
2022-11-07T22:57:18.327Z,6.03
2022-11-07T22:59:49.118Z,5.77
2022-11-07T23:02:18.125Z,7.63
2022-11-07T23:04:47.030Z,5.50
2022-11-07T23:07:15.898Z,5.17
2022-11-07T23:09:44.711Z,5.67
2022-11-07T23:12:13.603Z,5.07
2022-11-07T23:14:42.437Z,5.33
2022-11-07T23:17:13.061Z,5.57
2022-11-07T23:19:41.809Z,7.07
2022-11-07T23:22:10.632Z,4.77
2022-11-07T23:24:39.550Z,5.23
2022-11-07T23:27:09.170Z,5.27
2022-11-07T23:29:37.928Z,5.53
2022-11-07T23:32:07.078Z,5.40
2022-11-07T23:34:37.429Z,5.67
2022-11-07T23:37:13.967Z,5.20
2022-11-07T23:39:43.219Z,5.97
2022-11-07T23:42:13.075Z,5.30
2022-11-07T23:44:55.603Z,11.00
2022-11-07T23:47:41.597Z,5.10
2022-11-07T23:50:29.606Z,5.40
2022-11-07T23:52:58.401Z,5.13
2022-11-07T23:55:41.143Z,5.43
2022-11-07T23:58:27.062Z,6.57
